ITY1409 LIML-LIRF
Flight info
| Callsign | ITY1409 |
|---|---|
| Flight time | 0h 52m |
| Altitude | 33000 |
| Route | EKPAL DCT TINKU DCT XIBIL |
| Aircraft | A20N/M-SDE2E3FGHIRWXY/LB1 |
Departure
| Time | 2026-02-18 09:21 |
|---|---|
| Airport | Milano Linate Airport (LIML) |
Arrival
| Time | 2026-02-18 10:13 |
|---|---|
| Airport | Rome–Fiumicino Leonardo da Vinci International Airport (LIRF) |
| Time | Latitude | Longitude | Altitude | Speed | Heading |
|---|---|---|---|---|---|
| 2026-02-18 08:55 | 45.45977 | 9.27847 | 364 ft | 0 kts | 360° |
| 2026-02-18 09:11 | 45.45975 | 9.27847 | 359 ft | 1 kts | 360° |
| 2026-02-18 09:11 | 45.45967 | 9.27847 | 366 ft | 1 kts | 360° |
| 2026-02-18 09:11 | 45.45960 | 9.27847 | 363 ft | 1 kts | 360° |
| 2026-02-18 09:12 | 45.45952 | 9.27847 | 359 ft | 1 kts | 360° |
| 2026-02-18 09:12 | 45.45944 | 9.27847 | 362 ft | 1 kts | 360° |
| 2026-02-18 09:12 | 45.45936 | 9.27847 | 363 ft | 1 kts | 359° |
| 2026-02-18 09:12 | 45.45929 | 9.27847 | 362 ft | 1 kts | 359° |
| 2026-02-18 09:13 | 45.45921 | 9.27847 | 359 ft | 1 kts | 33° |
| 2026-02-18 09:13 | 45.45913 | 9.27835 | 359 ft | 0 kts | 86° |
| 2026-02-18 09:14 | 45.45913 | 9.27845 | 359 ft | 3 kts | 87° |
| 2026-02-18 09:14 | 45.45910 | 9.27886 | 359 ft | 6 kts | 95° |
| 2026-02-18 09:14 | 45.45904 | 9.27955 | 361 ft | 8 kts | 123° |
| 2026-02-18 09:15 | 45.45851 | 9.27985 | 360 ft | 10 kts | 180° |
| 2026-02-18 09:15 | 45.45771 | 9.27981 | 360 ft | 13 kts | 181° |
| 2026-02-18 09:15 | 45.45671 | 9.27980 | 360 ft | 16 kts | 179° |
| 2026-02-18 09:15 | 45.45554 | 9.27980 | 360 ft | 18 kts | 182° |
| 2026-02-18 09:16 | 45.45419 | 9.27978 | 360 ft | 21 kts | 180° |
| 2026-02-18 09:16 | 45.45283 | 9.27903 | 361 ft | 22 kts | 208° |
| 2026-02-18 09:16 | 45.45129 | 9.27874 | 360 ft | 24 kts | 174° |
| 2026-02-18 09:16 | 45.44969 | 9.27893 | 366 ft | 23 kts | 169° |
| 2026-02-18 09:17 | 45.44809 | 9.27945 | 363 ft | 24 kts | 175° |
| 2026-02-18 09:17 | 45.44453 | 9.27980 | 360 ft | 27 kts | 174° |
| 2026-02-18 09:17 | 45.44265 | 9.28001 | 364 ft | 28 kts | 176° |
| 2026-02-18 09:18 | 45.44070 | 9.28022 | 360 ft | 27 kts | 175° |
| 2026-02-18 09:18 | 45.43876 | 9.28043 | 363 ft | 29 kts | 175° |
| 2026-02-18 09:18 | 45.43692 | 9.28059 | 363 ft | 25 kts | 178° |
| 2026-02-18 09:18 | 45.43527 | 9.28081 | 360 ft | 15 kts | 175° |
| 2026-02-18 09:19 | 45.43451 | 9.28044 | 363 ft | 13 kts | 235° |
| 2026-02-18 09:19 | 45.43442 | 9.27973 | 360 ft | 0 kts | 264° |
| 2026-02-18 09:19 | 45.43441 | 9.27967 | 360 ft | 4 kts | 265° |
| 2026-02-18 09:19 | 45.43442 | 9.27881 | 362 ft | 10 kts | 283° |
| 2026-02-18 09:20 | 45.43501 | 9.27815 | 362 ft | 13 kts | 356° |
| 2026-02-18 09:20 | 45.43636 | 9.27799 | 362 ft | 38 kts | 355° |
| 2026-02-18 09:20 | 45.44145 | 9.27746 | 361 ft | 106 kts | 356° |
| 2026-02-18 09:20 | 45.45053 | 9.27651 | 381 ft | 152 kts | 358° |
| 2026-02-18 09:21 | 45.46082 | 9.27550 | 985 ft | 146 kts | 358° |
| 2026-02-18 09:21 | 45.48077 | 9.27751 | 2101 ft | 150 kts | 40° |
| 2026-02-18 09:21 | 45.48627 | 9.28988 | 2545 ft | 158 kts | 80° |
| 2026-02-18 09:22 | 45.48498 | 9.30617 | 2850 ft | 179 kts | 114° |
| 2026-02-18 09:22 | 45.47705 | 9.32099 | 3279 ft | 202 kts | 134° |
| 2026-02-18 09:22 | 45.45351 | 9.35200 | 4284 ft | 254 kts | 135° |
| 2026-02-18 09:23 | 45.43951 | 9.36804 | 5167 ft | 263 kts | 149° |
| 2026-02-18 09:23 | 45.42377 | 9.38191 | 6182 ft | 268 kts | 149° |
| 2026-02-18 09:23 | 45.40874 | 9.39602 | 6724 ft | 264 kts | 156° |
| 2026-02-18 09:23 | 45.39075 | 9.40209 | 7427 ft | 270 kts | 181° |
| 2026-02-18 09:24 | 45.37200 | 9.40321 | 8312 ft | 261 kts | 178° |
| 2026-02-18 09:24 | 45.35353 | 9.40869 | 8910 ft | 281 kts | 164° |
| 2026-02-18 09:24 | 45.33558 | 9.42059 | 9888 ft | 289 kts | 153° |
| 2026-02-18 09:24 | 45.31831 | 9.43655 | 10558 ft | 307 kts | 148° |
| 2026-02-18 09:25 | 45.30052 | 9.45562 | 10890 ft | 333 kts | 144° |
| 2026-02-18 09:25 | 45.26259 | 9.49877 | 12118 ft | 355 kts | 145° |
| 2026-02-18 09:25 | 45.24363 | 9.51971 | 12282 ft | 343 kts | 146° |
| 2026-02-18 09:26 | 45.22426 | 9.54105 | 12437 ft | 362 kts | 144° |
| 2026-02-18 09:26 | 45.20287 | 9.56003 | 13195 ft | 365 kts | 162° |
| 2026-02-18 09:26 | 45.17813 | 9.56791 | 13881 ft | 368 kts | 177° |
| 2026-02-18 09:26 | 45.15246 | 9.57344 | 14542 ft | 377 kts | 172° |
| 2026-02-18 09:27 | 45.12711 | 9.58403 | 15313 ft | 384 kts | 163° |
| 2026-02-18 09:27 | 45.10245 | 9.59963 | 16051 ft | 392 kts | 156° |
| 2026-02-18 09:27 | 45.07807 | 9.61744 | 16770 ft | 396 kts | 159° |
| 2026-02-18 09:27 | 45.05287 | 9.63372 | 17492 ft | 401 kts | 159° |
| 2026-02-18 09:28 | 45.02745 | 9.65055 | 18195 ft | 406 kts | 159° |
| 2026-02-18 09:28 | 45.00173 | 9.66766 | 18809 ft | 411 kts | 159° |
| 2026-02-18 09:28 | 44.97571 | 9.68490 | 19450 ft | 415 kts | 159° |
| 2026-02-18 09:28 | 44.94942 | 9.70223 | 20050 ft | 419 kts | 159° |
| 2026-02-18 09:29 | 44.92277 | 9.71972 | 20659 ft | 424 kts | 160° |
| 2026-02-18 09:29 | 44.86872 | 9.75506 | 21862 ft | 433 kts | 160° |
| 2026-02-18 09:29 | 44.84128 | 9.77295 | 22451 ft | 437 kts | 160° |
| 2026-02-18 09:30 | 44.81355 | 9.79101 | 23038 ft | 441 kts | 160° |
| 2026-02-18 09:30 | 44.78550 | 9.80926 | 23599 ft | 446 kts | 160° |
| 2026-02-18 09:30 | 44.75722 | 9.82764 | 24082 ft | 450 kts | 160° |
| 2026-02-18 09:30 | 44.72869 | 9.84616 | 24570 ft | 453 kts | 160° |
| 2026-02-18 09:31 | 44.70031 | 9.86614 | 25052 ft | 461 kts | 154° |
| 2026-02-18 09:31 | 44.67369 | 9.89172 | 25505 ft | 469 kts | 145° |
| 2026-02-18 09:31 | 44.64945 | 9.92313 | 25938 ft | 477 kts | 136° |
| 2026-02-18 09:31 | 44.62644 | 9.95685 | 26392 ft | 480 kts | 136° |
| 2026-02-18 09:32 | 44.60318 | 9.99076 | 26813 ft | 484 kts | 137° |
| 2026-02-18 09:32 | 44.57970 | 10.02478 | 27252 ft | 487 kts | 137° |
| 2026-02-18 09:32 | 44.55601 | 10.05900 | 27683 ft | 490 kts | 137° |
| 2026-02-18 09:32 | 44.53216 | 10.09335 | 28090 ft | 493 kts | 137° |
| 2026-02-18 09:33 | 44.50789 | 10.12762 | 28442 ft | 495 kts | 141° |
| 2026-02-18 09:33 | 44.45095 | 10.17996 | 29215 ft | 488 kts | 162° |
| 2026-02-18 09:33 | 44.41935 | 10.19708 | 29568 ft | 488 kts | 166° |
| 2026-02-18 09:34 | 44.38749 | 10.21377 | 29928 ft | 492 kts | 166° |
| 2026-02-18 09:34 | 44.35532 | 10.23069 | 30219 ft | 496 kts | 166° |
| 2026-02-18 09:34 | 44.32300 | 10.24775 | 30574 ft | 498 kts | 166° |
| 2026-02-18 09:34 | 44.29050 | 10.26491 | 30923 ft | 500 kts | 166° |
| 2026-02-18 09:35 | 44.25788 | 10.28212 | 31278 ft | 502 kts | 166° |
| 2026-02-18 09:35 | 44.22523 | 10.29936 | 31676 ft | 501 kts | 166° |
| 2026-02-18 09:35 | 44.19260 | 10.31655 | 32062 ft | 502 kts | 166° |
| 2026-02-18 09:35 | 44.15997 | 10.33372 | 32468 ft | 501 kts | 166° |
| 2026-02-18 09:36 | 44.12734 | 10.35086 | 32835 ft | 501 kts | 166° |
| 2026-02-18 09:36 | 44.09472 | 10.36798 | 32975 ft | 499 kts | 166° |
| 2026-02-18 09:36 | 44.06225 | 10.38500 | 32993 ft | 498 kts | 166° |
| 2026-02-18 09:37 | 43.99734 | 10.41891 | 32998 ft | 498 kts | 167° |
| 2026-02-18 09:37 | 43.90002 | 10.46962 | 33012 ft | 497 kts | 167° |
| 2026-02-18 09:38 | 43.83525 | 10.50327 | 33015 ft | 497 kts | 167° |
| 2026-02-18 09:38 | 43.77085 | 10.53665 | 33022 ft | 498 kts | 167° |
| 2026-02-18 09:39 | 43.70567 | 10.56835 | 33028 ft | 495 kts | 169° |
| 2026-02-18 09:39 | 43.64035 | 10.59810 | 33019 ft | 495 kts | 169° |
| 2026-02-18 09:40 | 43.57502 | 10.62814 | 33011 ft | 495 kts | 169° |
| 2026-02-18 09:40 | 43.50968 | 10.65836 | 33029 ft | 495 kts | 169° |
| 2026-02-18 09:41 | 43.41182 | 10.70354 | 33024 ft | 494 kts | 169° |
| 2026-02-18 09:42 | 43.34668 | 10.73354 | 33017 ft | 494 kts | 169° |
| 2026-02-18 09:42 | 43.28157 | 10.76345 | 33022 ft | 493 kts | 169° |
| 2026-02-18 09:43 | 43.21652 | 10.79325 | 33019 ft | 492 kts | 169° |
| 2026-02-18 09:43 | 43.15159 | 10.82294 | 33017 ft | 492 kts | 169° |
| 2026-02-18 09:44 | 43.08661 | 10.85258 | 32977 ft | 491 kts | 169° |
| 2026-02-18 09:44 | 43.05426 | 10.86733 | 32587 ft | 490 kts | 169° |
| 2026-02-18 09:44 | 43.02191 | 10.88203 | 31842 ft | 491 kts | 169° |
| 2026-02-18 09:44 | 42.98938 | 10.89677 | 30910 ft | 495 kts | 168° |
| 2026-02-18 09:45 | 42.96765 | 10.90660 | 30241 ft | 498 kts | 168° |
| 2026-02-18 09:45 | 42.90151 | 10.93653 | 28308 ft | 498 kts | 167° |
| 2026-02-18 09:45 | 42.86911 | 10.95128 | 28066 ft | 483 kts | 167° |
| 2026-02-18 09:46 | 42.83773 | 10.96558 | 27881 ft | 468 kts | 167° |
| 2026-02-18 09:46 | 42.80842 | 10.98411 | 27704 ft | 463 kts | 153° |
| 2026-02-18 09:46 | 42.78309 | 11.01081 | 27277 ft | 462 kts | 138° |
| 2026-02-18 09:46 | 42.76277 | 11.04466 | 26701 ft | 463 kts | 125° |
| 2026-02-18 09:47 | 42.74613 | 11.08203 | 26173 ft | 460 kts | 121° |
| 2026-02-18 09:47 | 42.73036 | 11.11959 | 25668 ft | 456 kts | 121° |
| 2026-02-18 09:47 | 42.71434 | 11.15657 | 25161 ft | 452 kts | 122° |
| 2026-02-18 09:47 | 42.69798 | 11.19279 | 24668 ft | 448 kts | 123° |
| 2026-02-18 09:48 | 42.68142 | 11.22841 | 24194 ft | 444 kts | 123° |
| 2026-02-18 09:48 | 42.66483 | 11.26356 | 23686 ft | 440 kts | 124° |
| 2026-02-18 09:48 | 42.64830 | 11.29837 | 23188 ft | 436 kts | 124° |
| 2026-02-18 09:48 | 42.63192 | 11.33277 | 22642 ft | 432 kts | 124° |
| 2026-02-18 09:49 | 42.61567 | 11.36684 | 22121 ft | 428 kts | 124° |
| 2026-02-18 09:49 | 42.58360 | 11.43404 | 21091 ft | 418 kts | 123° |
| 2026-02-18 09:49 | 42.56787 | 11.46696 | 20372 ft | 413 kts | 123° |
| 2026-02-18 09:50 | 42.55119 | 11.49816 | 19677 ft | 406 kts | 136° |
| 2026-02-18 09:50 | 42.52941 | 11.52156 | 18986 ft | 395 kts | 155° |
| 2026-02-18 09:50 | 42.50445 | 11.53558 | 18314 ft | 385 kts | 165° |
| 2026-02-18 09:50 | 42.47943 | 11.54728 | 17817 ft | 375 kts | 165° |
| 2026-02-18 09:51 | 42.45487 | 11.55874 | 17356 ft | 371 kts | 165° |
| 2026-02-18 09:51 | 42.43071 | 11.57004 | 17093 ft | 361 kts | 165° |
| 2026-02-18 09:51 | 42.40741 | 11.58098 | 16897 ft | 350 kts | 165° |
| 2026-02-18 09:51 | 42.38458 | 11.59167 | 16642 ft | 342 kts | 165° |
| 2026-02-18 09:52 | 42.36223 | 11.60211 | 16439 ft | 341 kts | 165° |
| 2026-02-18 09:52 | 42.33973 | 11.61256 | 16190 ft | 341 kts | 165° |
| 2026-02-18 09:52 | 42.31767 | 11.62286 | 16094 ft | 330 kts | 165° |
| 2026-02-18 09:52 | 42.29633 | 11.63284 | 15936 ft | 320 kts | 165° |
| 2026-02-18 09:53 | 42.27535 | 11.64262 | 15589 ft | 318 kts | 165° |
| 2026-02-18 09:53 | 42.23376 | 11.66141 | 14788 ft | 312 kts | 167° |
| 2026-02-18 09:53 | 42.21313 | 11.67018 | 14262 ft | 310 kts | 167° |
| 2026-02-18 09:54 | 42.19268 | 11.67883 | 13737 ft | 307 kts | 167° |
| 2026-02-18 09:54 | 42.17232 | 11.68750 | 13134 ft | 306 kts | 167° |
| 2026-02-18 09:54 | 42.15218 | 11.69611 | 12589 ft | 303 kts | 166° |
| 2026-02-18 09:54 | 42.13219 | 11.70468 | 12055 ft | 300 kts | 166° |
| 2026-02-18 09:55 | 42.11240 | 11.71318 | 11751 ft | 296 kts | 166° |
| 2026-02-18 09:55 | 42.09294 | 11.72155 | 11498 ft | 291 kts | 166° |
| 2026-02-18 09:55 | 42.07407 | 11.73086 | 11233 ft | 289 kts | 153° |
| 2026-02-18 09:55 | 42.05909 | 11.74852 | 10983 ft | 287 kts | 125° |
| 2026-02-18 09:56 | 42.05148 | 11.77277 | 10732 ft | 282 kts | 96° |
| 2026-02-18 09:56 | 42.05266 | 11.79865 | 10481 ft | 276 kts | 68° |
| 2026-02-18 09:56 | 42.06008 | 11.82206 | 10253 ft | 270 kts | 58° |
| 2026-02-18 09:56 | 42.06847 | 11.84454 | 10009 ft | 268 kts | 59° |
| 2026-02-18 09:57 | 42.07862 | 11.86483 | 9798 ft | 257 kts | 37° |
| 2026-02-18 09:57 | 42.11024 | 11.87842 | 9627 ft | 238 kts | 344° |
| 2026-02-18 09:57 | 42.12600 | 11.87214 | 9593 ft | 237 kts | 338° |
| 2026-02-18 09:58 | 42.14149 | 11.86544 | 9549 ft | 237 kts | 338° |
| 2026-02-18 09:58 | 42.15735 | 11.85861 | 9516 ft | 236 kts | 338° |
| 2026-02-18 09:58 | 42.17302 | 11.85188 | 9471 ft | 236 kts | 339° |
| 2026-02-18 09:58 | 42.18849 | 11.84526 | 9436 ft | 236 kts | 339° |
| 2026-02-18 09:59 | 42.20435 | 11.83849 | 9397 ft | 236 kts | 339° |
| 2026-02-18 09:59 | 42.21981 | 11.83189 | 9355 ft | 236 kts | 339° |
| 2026-02-18 09:59 | 42.23570 | 11.82511 | 9313 ft | 237 kts | 339° |
| 2026-02-18 09:59 | 42.25122 | 11.81847 | 9261 ft | 238 kts | 339° |
| 2026-02-18 10:00 | 42.26700 | 11.81171 | 9223 ft | 237 kts | 339° |
| 2026-02-18 10:00 | 42.28270 | 11.80498 | 9179 ft | 237 kts | 339° |
| 2026-02-18 10:00 | 42.29869 | 11.79964 | 9126 ft | 240 kts | 354° |
| 2026-02-18 10:00 | 42.31518 | 11.80432 | 9087 ft | 250 kts | 24° |
| 2026-02-18 10:01 | 42.32840 | 11.82007 | 9057 ft | 261 kts | 53° |
| 2026-02-18 10:01 | 42.34099 | 11.86646 | 9020 ft | 265 kts | 71° |
| 2026-02-18 10:01 | 42.34603 | 11.89040 | 9023 ft | 265 kts | 71° |
| 2026-02-18 10:02 | 42.34928 | 11.91491 | 9025 ft | 268 kts | 91° |
| 2026-02-18 10:02 | 42.34415 | 11.93955 | 9031 ft | 291 kts | 120° |
| 2026-02-18 10:02 | 42.33042 | 11.96053 | 9024 ft | 302 kts | 147° |
| 2026-02-18 10:02 | 42.31181 | 11.97166 | 9026 ft | 285 kts | 171° |
| 2026-02-18 10:03 | 42.29281 | 11.97546 | 9022 ft | 268 kts | 177° |
| 2026-02-18 10:03 | 42.27489 | 11.97854 | 9007 ft | 253 kts | 175° |
| 2026-02-18 10:03 | 42.25779 | 11.98279 | 8792 ft | 249 kts | 171° |
| 2026-02-18 10:03 | 42.24102 | 11.98836 | 8499 ft | 248 kts | 168° |
| 2026-02-18 10:04 | 42.22455 | 11.99476 | 8226 ft | 245 kts | 166° |
| 2026-02-18 10:04 | 42.20830 | 12.00155 | 7931 ft | 244 kts | 165° |
| 2026-02-18 10:04 | 42.19222 | 12.00844 | 7661 ft | 241 kts | 165° |
| 2026-02-18 10:04 | 42.17631 | 12.01526 | 7400 ft | 238 kts | 165° |
| 2026-02-18 10:05 | 42.16060 | 12.02200 | 7126 ft | 236 kts | 165° |
| 2026-02-18 10:05 | 42.12982 | 12.03521 | 6561 ft | 229 kts | 163° |
| 2026-02-18 10:05 | 42.11571 | 12.04475 | 6182 ft | 226 kts | 143° |
| 2026-02-18 10:06 | 42.10516 | 12.05944 | 6042 ft | 211 kts | 134° |
| 2026-02-18 10:06 | 42.09568 | 12.07364 | 5846 ft | 199 kts | 135° |
| 2026-02-18 10:06 | 42.08638 | 12.08726 | 5489 ft | 196 kts | 135° |
| 2026-02-18 10:06 | 42.07713 | 12.10068 | 5104 ft | 195 kts | 135° |
| 2026-02-18 10:07 | 42.06798 | 12.11398 | 4765 ft | 192 kts | 135° |
| 2026-02-18 10:07 | 42.05894 | 12.12715 | 4443 ft | 191 kts | 135° |
| 2026-02-18 10:07 | 42.04989 | 12.14019 | 4213 ft | 190 kts | 135° |
| 2026-02-18 10:07 | 42.04093 | 12.15313 | 3976 ft | 188 kts | 135° |
| 2026-02-18 10:08 | 42.03208 | 12.16611 | 3719 ft | 188 kts | 135° |
| 2026-02-18 10:08 | 42.02322 | 12.17902 | 3509 ft | 186 kts | 139° |
| 2026-02-18 10:08 | 42.01294 | 12.18910 | 3477 ft | 186 kts | 153° |
| 2026-02-18 10:08 | 42.00112 | 12.19612 | 3253 ft | 185 kts | 161° |
| 2026-02-18 10:09 | 41.98890 | 12.20163 | 3001 ft | 185 kts | 163° |
| 2026-02-18 10:09 | 41.96418 | 12.21204 | 2511 ft | 187 kts | 163° |
| 2026-02-18 10:09 | 41.95194 | 12.21716 | 2250 ft | 187 kts | 164° |
| 2026-02-18 10:10 | 41.93939 | 12.22240 | 2003 ft | 187 kts | 164° |
| 2026-02-18 10:10 | 41.92730 | 12.22748 | 1777 ft | 180 kts | 164° |
| 2026-02-18 10:10 | 41.91585 | 12.23227 | 1512 ft | 164 kts | 163° |
| 2026-02-18 10:10 | 41.90550 | 12.23659 | 1298 ft | 148 kts | 163° |
| 2026-02-18 10:11 | 41.89618 | 12.24050 | 1107 ft | 132 kts | 162° |
| 2026-02-18 10:11 | 41.88785 | 12.24399 | 936 ft | 123 kts | 162° |
| 2026-02-18 10:11 | 41.87946 | 12.24752 | 767 ft | 126 kts | 161° |
| 2026-02-18 10:11 | 41.87114 | 12.25098 | 584 ft | 126 kts | 160° |
| 2026-02-18 10:12 | 41.86270 | 12.25455 | 414 ft | 127 kts | 159° |
| 2026-02-18 10:12 | 41.85427 | 12.25821 | 240 ft | 126 kts | 160° |
| 2026-02-18 10:12 | 41.84583 | 12.26163 | 88 ft | 127 kts | 161° |
| 2026-02-18 10:12 | 41.83764 | 12.26492 | 21 ft | 114 kts | 161° |
| 2026-02-18 10:13 | 41.83152 | 12.26758 | 10 ft | 55 kts | 162° |
| 2026-02-18 10:13 | 41.82658 | 12.26854 | 10 ft | 3 kts | 191° |
| 2026-02-18 10:13 | 41.82611 | 12.26841 | 10 ft | 14 kts | 192° |
| 2026-02-18 10:14 | 41.82501 | 12.26809 | 10 ft | 18 kts | 192° |
| 2026-02-18 10:14 | 41.82367 | 12.26784 | 10 ft | 21 kts | 181° |
| 2026-02-18 10:14 | 41.82220 | 12.26821 | 10 ft | 23 kts | 162° |
| 2026-02-18 10:14 | 41.82065 | 12.26891 | 10 ft | 24 kts | 161° |
| 2026-02-18 10:15 | 41.81899 | 12.26955 | 11 ft | 25 kts | 162° |
| 2026-02-18 10:15 | 41.81728 | 12.27028 | 12 ft | 27 kts | 162° |
| 2026-02-18 10:15 | 41.81546 | 12.27104 | 11 ft | 28 kts | 164° |
| 2026-02-18 10:15 | 41.81357 | 12.27182 | 12 ft | 29 kts | 161° |
| 2026-02-18 10:16 | 41.81162 | 12.27265 | 12 ft | 29 kts | 163° |
| 2026-02-18 10:16 | 41.80979 | 12.27340 | 13 ft | 28 kts | 167° |
| 2026-02-18 10:16 | 41.80783 | 12.27321 | 12 ft | 29 kts | 191° |
| 2026-02-18 10:16 | 41.80637 | 12.27167 | 12 ft | 29 kts | 249° |
| 2026-02-18 10:17 | 41.80570 | 12.26911 | 14 ft | 29 kts | 250° |
| 2026-02-18 10:17 | 41.80436 | 12.26428 | 15 ft | 25 kts | 248° |
| 2026-02-18 10:17 | 41.80300 | 12.26393 | 14 ft | 22 kts | 160° |
| 2026-02-18 10:18 | 41.80152 | 12.26369 | 14 ft | 23 kts | 207° |
| 2026-02-18 10:18 | 41.80000 | 12.26273 | 14 ft | 25 kts | 203° |
| 2026-02-18 10:18 | 41.79834 | 12.26170 | 15 ft | 27 kts | 208° |
| 2026-02-18 10:18 | 41.79683 | 12.26062 | 14 ft | 14 kts | 206° |
| 2026-02-18 10:19 | 41.79656 | 12.25990 | 14 ft | 10 kts | 295° |
| 2026-02-18 10:19 | 41.79661 | 12.25976 | 14 ft | 0 kts | 292° |
| 2026-02-18 10:19 | 41.79661 | 12.25975 | 14 ft | 1 kts | 292° |
| 2026-02-18 10:19 | 41.79664 | 12.25964 | 14 ft | 0 kts | 293° |